sensor_id;sensor_type;location;lat;lon;timestamp;P1;durP1;ratioP1;P2;durP2;ratioP2
59167;SDS011;44948;55.046;73.266;2022-08-11T00:00:57;154.55;;;81.57;;
59167;SDS011;44948;55.046;73.266;2022-08-11T00:02:53;150.60;;;79.80;;
59167;SDS011;44948;55.046;73.266;2022-08-11T00:04:39;158.32;;;83.53;;
59167;SDS011;44948;55.046;73.266;2022-08-11T00:06:35;154.25;;;84.30;;
59167;SDS011;44948;55.046;73.266;2022-08-11T00:08:30;159.00;;;86.30;;
59167;SDS011;44948;55.046;73.266;2022-08-11T00:10:18;153.70;;;83.68;;
59167;SDS011;44948;55.046;73.266;2022-08-11T00:12:12;144.57;;;82.50;;
59167;SDS011;44948;55.046;73.266;2022-08-11T00:15:57;157.55;;;82.03;;
59167;SDS011;44948;55.046;73.266;2022-08-11T00:17:45;150.93;;;84.82;;
59167;SDS011;44948;55.046;73.266;2022-08-11T00:19:31;147.55;;;85.90;;
59167;SDS011;44948;55.046;73.266;2022-08-11T00:21:25;159.50;;;87.10;;
59167;SDS011;44948;55.046;73.266;2022-08-11T00:23:12;157.73;;;84.80;;
59167;SDS011;44948;55.046;73.266;2022-08-11T00:25:11;157.35;;;87.05;;
59167;SDS011;44948;55.046;73.266;2022-08-11T00:27:07;167.10;;;88.82;;
59167;SDS011;44948;55.046;73.266;2022-08-11T00:29:20;158.52;;;85.90;;
59167;SDS011;44948;55.046;73.266;2022-08-11T00:31:28;160.05;;;86.18;;
59167;SDS011;44948;55.046;73.266;2022-08-11T00:33:15;163.60;;;90.68;;
59167;SDS011;44948;55.046;73.266;2022-08-11T00:35:04;162.05;;;89.45;;
59167;SDS011;44948;55.046;73.266;2022-08-11T00:38:44;161.02;;;87.60;;
59167;SDS011;44948;55.046;73.266;2022-08-11T00:40:32;166.20;;;90.07;;
59167;SDS011;44948;55.046;73.266;2022-08-11T00:51:09;173.43;;;91.80;;
59167;SDS011;44948;55.046;73.266;2022-08-11T00:53:11;166.95;;;89.70;;
59167;SDS011;44948;55.046;73.266;2022-08-11T01:17:45;165.32;;;86.28;;
59167;SDS011;44948;55.046;73.266;2022-08-11T01:22:02;167.77;;;88.03;;
59167;SDS011;44948;55.046;73.266;2022-08-11T01:37:56;164.57;;;83.72;;
59167;SDS011;44948;55.046;73.266;2022-08-11T01:40:16;163.52;;;83.35;;
59167;SDS011;44948;55.046;73.266;2022-08-11T01:48:40;160.57;;;85.38;;
59167;SDS011;44948;55.046;73.266;2022-08-11T01:51:00;165.57;;;82.00;;
59167;SDS011;44948;55.046;73.266;2022-08-11T02:03:32;159.77;;;81.60;;
59167;SDS011;44948;55.046;73.266;2022-08-11T02:11:37;167.52;;;83.32;;
59167;SDS011;44948;55.046;73.266;2022-08-11T02:13:33;167.98;;;85.05;;
59167;SDS011;44948;55.046;73.266;2022-08-11T02:22:32;165.77;;;83.47;;
59167;SDS011;44948;55.046;73.266;2022-08-11T02:24:43;170.85;;;82.47;;
59167;SDS011;44948;55.046;73.266;2022-08-11T02:26:41;166.32;;;87.03;;
59167;SDS011;44948;55.046;73.266;2022-08-11T02:35:22;171.93;;;86.53;;
59167;SDS011;44948;55.046;73.266;2022-08-11T02:39:19;170.57;;;85.55;;
59167;SDS011;44948;55.046;73.266;2022-08-11T02:49:11;158.30;;;79.78;;
59167;SDS011;44948;55.046;73.266;2022-08-11T02:53:15;158.77;;;79.30;;
59167;SDS011;44948;55.046;73.266;2022-08-11T02:55:32;162.98;;;79.57;;
59167;SDS011;44948;55.046;73.266;2022-08-11T02:57:41;163.25;;;79.13;;
59167;SDS011;44948;55.046;73.266;2022-08-11T03:00:07;160.68;;;82.00;;
59167;SDS011;44948;55.046;73.266;2022-08-11T03:01:57;157.93;;;80.07;;
59167;SDS011;44948;55.046;73.266;2022-08-11T03:03:57;159.15;;;81.07;;
59167;SDS011;44948;55.046;73.266;2022-08-11T03:15:17;148.50;;;73.95;;
59167;SDS011;44948;55.046;73.266;2022-08-11T03:21:19;155.55;;;75.53;;
59167;SDS011;44948;55.046;73.266;2022-08-11T03:25:53;138.43;;;70.95;;
59167;SDS011;44948;55.046;73.266;2022-08-11T03:30:32;149.38;;;75.55;;
59167;SDS011;44948;55.046;73.266;2022-08-11T03:32:28;146.07;;;72.88;;
59167;SDS011;44948;55.046;73.266;2022-08-11T03:35:06;147.80;;;75.10;;
59167;SDS011;44948;55.046;73.266;2022-08-11T03:39:46;138.30;;;74.00;;
59167;SDS011;44948;55.046;73.266;2022-08-11T03:55:13;133.63;;;70.95;;
59167;SDS011;44948;55.046;73.266;2022-08-11T03:59:53;128.57;;;71.30;;
59167;SDS011;44948;55.046;73.266;2022-08-11T04:07:11;129.98;;;67.13;;
59167;SDS011;44948;55.046;73.266;2022-08-11T04:19:18;133.48;;;69.85;;
59167;SDS011;44948;55.046;73.266;2022-08-11T04:26:00;124.43;;;68.95;;
59167;SDS011;44948;55.046;73.266;2022-08-11T04:37:41;125.75;;;67.38;;
59167;SDS011;44948;55.046;73.266;2022-08-11T04:40:33;125.22;;;64.10;;
59167;SDS011;44948;55.046;73.266;2022-08-11T04:44:50;117.20;;;61.80;;
59167;SDS011;44948;55.046;73.266;2022-08-11T04:56:43;113.45;;;62.17;;
59167;SDS011;44948;55.046;73.266;2022-08-11T04:59:09;124.97;;;63.08;;
59167;SDS011;44948;55.046;73.266;2022-08-11T05:01:50;121.85;;;63.75;;
59167;SDS011;44948;55.046;73.266;2022-08-11T05:04:08;122.07;;;66.07;;
59167;SDS011;44948;55.046;73.266;2022-08-11T05:14:03;116.00;;;60.80;;
59167;SDS011;44948;55.046;73.266;2022-08-11T05:16:16;110.72;;;60.67;;
59167;SDS011;44948;55.046;73.266;2022-08-11T05:18:44;117.40;;;61.22;;
59167;SDS011;44948;55.046;73.266;2022-08-11T05:21:04;114.07;;;62.22;;
59167;SDS011;44948;55.046;73.266;2022-08-11T05:23:13;107.25;;;58.55;;
59167;SDS011;44948;55.046;73.266;2022-08-11T05:25:24;110.80;;;58.85;;
59167;SDS011;44948;55.046;73.266;2022-08-11T05:30:16;109.72;;;62.08;;
59167;SDS011;44948;55.046;73.266;2022-08-11T05:35:07;113.43;;;60.83;;
59167;SDS011;44948;55.046;73.266;2022-08-11T05:36:54;110.97;;;61.45;;
59167;SDS011;44948;55.046;73.266;2022-08-11T05:38:56;112.55;;;59.67;;
59167;SDS011;44948;55.046;73.266;2022-08-11T05:41:12;105.82;;;58.55;;
59167;SDS011;44948;55.046;73.266;2022-08-11T05:43:24;109.25;;;60.67;;
59167;SDS011;44948;55.046;73.266;2022-08-11T05:45:24;113.70;;;60.05;;
59167;SDS011;44948;55.046;73.266;2022-08-11T05:47:29;116.60;;;60.28;;
59167;SDS011;44948;55.046;73.266;2022-08-11T05:49:39;115.43;;;59.25;;
59167;SDS011;44948;55.046;73.266;2022-08-11T05:51:41;109.68;;;57.50;;
59167;SDS011;44948;55.046;73.266;2022-08-11T05:53:54;105.70;;;59.20;;
59167;SDS011;44948;55.046;73.266;2022-08-11T05:56:08;102.80;;;56.90;;
59167;SDS011;44948;55.046;73.266;2022-08-11T05:58:08;103.20;;;58.35;;
59167;SDS011;44948;55.046;73.266;2022-08-11T06:00:01;98.22;;;55.20;;
59167;SDS011;44948;55.046;73.266;2022-08-11T06:01:59;108.88;;;58.38;;
59167;SDS011;44948;55.046;73.266;2022-08-11T06:04:04;104.32;;;58.60;;
59167;SDS011;44948;55.046;73.266;2022-08-11T06:06:06;108.15;;;58.80;;
59167;SDS011;44948;55.046;73.266;2022-08-11T06:07:53;105.18;;;57.75;;
59167;SDS011;44948;55.046;73.266;2022-08-11T06:09:59;101.97;;;57.38;;
59167;SDS011;44948;55.046;73.266;2022-08-11T06:11:46;112.20;;;62.03;;
59167;SDS011;44948;55.046;73.266;2022-08-11T06:13:32;109.72;;;57.22;;
59167;SDS011;44948;55.046;73.266;2022-08-11T06:15:45;105.85;;;59.05;;
59167;SDS011;44948;55.046;73.266;2022-08-11T06:17:35;102.90;;;56.63;;
59167;SDS011;44948;55.046;73.266;2022-08-11T06:19:42;98.03;;;57.25;;
59167;SDS011;44948;55.046;73.266;2022-08-11T06:21:46;99.82;;;56.95;;
59167;SDS011;44948;55.046;73.266;2022-08-11T06:23:37;108.00;;;57.55;;
59167;SDS011;44948;55.046;73.266;2022-08-11T06:25:29;99.60;;;54.40;;
59167;SDS011;44948;55.046;73.266;2022-08-11T06:30:13;98.60;;;55.35;;
59167;SDS011;44948;55.046;73.266;2022-08-11T06:32:23;100.18;;;56.53;;
59167;SDS011;44948;55.046;73.266;2022-08-11T06:46:35;98.03;;;54.35;;
59167;SDS011;44948;55.046;73.266;2022-08-11T06:48:40;97.13;;;54.70;;
59167;SDS011;44948;55.046;73.266;2022-08-11T06:50:40;107.22;;;57.25;;
59167;SDS011;44948;55.046;73.266;2022-08-11T06:52:51;86.70;;;53.08;;
59167;SDS011;44948;55.046;73.266;2022-08-11T06:54:49;107.63;;;57.28;;
59167;SDS011;44948;55.046;73.266;2022-08-11T06:56:51;103.28;;;55.13;;
59167;SDS011;44948;55.046;73.266;2022-08-11T06:59:03;101.15;;;54.53;;
59167;SDS011;44948;55.046;73.266;2022-08-11T07:01:12;99.25;;;53.92;;
59167;SDS011;44948;55.046;73.266;2022-08-11T07:03:11;101.70;;;56.33;;
59167;SDS011;44948;55.046;73.266;2022-08-11T07:07:10;91.68;;;54.78;;
59167;SDS011;44948;55.046;73.266;2022-08-11T07:12:44;99.63;;;53.28;;
59167;SDS011;44948;55.046;73.266;2022-08-11T07:14:52;90.93;;;52.45;;
59167;SDS011;44948;55.046;73.266;2022-08-11T07:17:16;93.30;;;50.88;;
59167;SDS011;44948;55.046;73.266;2022-08-11T07:19:08;93.45;;;51.70;;
59167;SDS011;44948;55.046;73.266;2022-08-11T07:23:24;92.95;;;51.72;;
59167;SDS011;44948;55.046;73.266;2022-08-11T07:25:39;85.95;;;49.28;;
59167;SDS011;44948;55.046;73.266;2022-08-11T07:27:52;86.82;;;49.72;;
59167;SDS011;44948;55.046;73.266;2022-08-11T07:30:22;88.05;;;49.45;;
59167;SDS011;44948;55.046;73.266;2022-08-11T07:32:36;88.55;;;47.85;;
59167;SDS011;44948;55.046;73.266;2022-08-11T07:36:29;91.78;;;51.95;;
59167;SDS011;44948;55.046;73.266;2022-08-11T07:38:25;90.72;;;52.85;;
59167;SDS011;44948;55.046;73.266;2022-08-11T07:40:24;90.10;;;50.95;;
59167;SDS011;44948;55.046;73.266;2022-08-11T07:42:08;88.35;;;50.20;;
59167;SDS011;44948;55.046;73.266;2022-08-11T07:43:54;89.68;;;50.95;;
59167;SDS011;44948;55.046;73.266;2022-08-11T07:45:53;85.03;;;49.38;;
59167;SDS011;44948;55.046;73.266;2022-08-11T07:47:58;83.18;;;49.03;;
59167;SDS011;44948;55.046;73.266;2022-08-11T07:50:03;81.07;;;47.65;;
59167;SDS011;44948;55.046;73.266;2022-08-11T07:52:08;81.82;;;47.25;;
59167;SDS011;44948;55.046;73.266;2022-08-11T07:54:12;88.35;;;49.10;;
59167;SDS011;44948;55.046;73.266;2022-08-11T07:56:01;85.35;;;49.45;;
59167;SDS011;44948;55.046;73.266;2022-08-11T07:57:49;86.43;;;48.70;;
59167;SDS011;44948;55.046;73.266;2022-08-11T08:00:10;86.97;;;48.38;;
59167;SDS011;44948;55.046;73.266;2022-08-11T08:02:15;85.40;;;49.20;;
59167;SDS011;44948;55.046;73.266;2022-08-11T08:04:22;93.13;;;49.67;;
59167;SDS011;44948;55.046;73.266;2022-08-11T08:06:31;87.30;;;46.92;;
59167;SDS011;44948;55.046;73.266;2022-08-11T08:08:39;84.22;;;48.65;;
59167;SDS011;44948;55.046;73.266;2022-08-11T08:10:43;85.13;;;49.60;;
59167;SDS011;44948;55.046;73.266;2022-08-11T08:12:47;85.57;;;49.90;;
59167;SDS011;44948;55.046;73.266;2022-08-11T08:14:52;91.32;;;50.83;;
59167;SDS011;44948;55.046;73.266;2022-08-11T08:17:05;90.90;;;50.13;;
59167;SDS011;44948;55.046;73.266;2022-08-11T08:19:16;87.90;;;49.28;;
59167;SDS011;44948;55.046;73.266;2022-08-11T08:21:19;87.78;;;50.63;;
59167;SDS011;44948;55.046;73.266;2022-08-11T08:23:20;88.97;;;48.42;;
59167;SDS011;44948;55.046;73.266;2022-08-11T08:25:31;88.30;;;49.15;;
59167;SDS011;44948;55.046;73.266;2022-08-11T08:27:25;95.75;;;50.90;;
59167;SDS011;44948;55.046;73.266;2022-08-11T08:29:35;86.00;;;48.80;;
59167;SDS011;44948;55.046;73.266;2022-08-11T08:31:44;88.03;;;50.78;;
59167;SDS011;44948;55.046;73.266;2022-08-11T08:33:52;92.13;;;49.92;;
59167;SDS011;44948;55.046;73.266;2022-08-11T08:35:40;94.65;;;53.92;;
59167;SDS011;44948;55.046;73.266;2022-08-11T08:37:57;84.07;;;50.05;;
59167;SDS011;44948;55.046;73.266;2022-08-11T08:39:55;90.80;;;52.05;;
59167;SDS011;44948;55.046;73.266;2022-08-11T08:41:48;86.60;;;49.85;;
59167;SDS011;44948;55.046;73.266;2022-08-11T08:43:46;88.65;;;51.58;;
59167;SDS011;44948;55.046;73.266;2022-08-11T08:45:37;87.47;;;51.40;;
59167;SDS011;44948;55.046;73.266;2022-08-11T08:47:42;83.70;;;48.90;;
59167;SDS011;44948;55.046;73.266;2022-08-11T08:49:38;89.70;;;51.10;;
59167;SDS011;44948;55.046;73.266;2022-08-11T08:51:37;88.07;;;51.75;;
59167;SDS011;44948;55.046;73.266;2022-08-11T08:53:38;89.43;;;50.05;;
59167;SDS011;44948;55.046;73.266;2022-08-11T08:55:35;92.15;;;50.95;;
59167;SDS011;44948;55.046;73.266;2022-08-11T08:57:35;90.90;;;52.58;;
59167;SDS011;44948;55.046;73.266;2022-08-11T08:59:36;90.22;;;48.25;;
59167;SDS011;44948;55.046;73.266;2022-08-11T09:01:28;86.55;;;48.53;;
59167;SDS011;44948;55.046;73.266;2022-08-11T09:03:18;84.80;;;47.08;;
59167;SDS011;44948;55.046;73.266;2022-08-11T09:05:11;79.68;;;46.88;;
59167;SDS011;44948;55.046;73.266;2022-08-11T09:07:19;89.05;;;45.92;;
59167;SDS011;44948;55.046;73.266;2022-08-11T09:09:29;76.93;;;45.15;;
59167;SDS011;44948;55.046;73.266;2022-08-11T09:11:18;79.43;;;45.20;;
59167;SDS011;44948;55.046;73.266;2022-08-11T09:13:30;75.40;;;45.30;;
59167;SDS011;44948;55.046;73.266;2022-08-11T09:15:17;76.70;;;42.60;;
59167;SDS011;44948;55.046;73.266;2022-08-11T09:17:10;74.13;;;44.35;;
59167;SDS011;44948;55.046;73.266;2022-08-11T09:18:54;73.88;;;43.38;;
59167;SDS011;44948;55.046;73.266;2022-08-11T09:20:52;69.72;;;41.50;;
59167;SDS011;44948;55.046;73.266;2022-08-11T09:22:49;77.22;;;41.95;;
59167;SDS011;44948;55.046;73.266;2022-08-11T09:25:08;72.90;;;41.65;;
59167;SDS011;44948;55.046;73.266;2022-08-11T09:27:15;71.28;;;40.60;;
59167;SDS011;44948;55.046;73.266;2022-08-11T09:29:27;68.57;;;39.28;;
59167;SDS011;44948;55.046;73.266;2022-08-11T09:31:16;66.78;;;40.38;;
59167;SDS011;44948;55.046;73.266;2022-08-11T09:33:13;62.03;;;38.47;;
59167;SDS011;44948;55.046;73.266;2022-08-11T09:35:08;62.60;;;38.10;;
59167;SDS011;44948;55.046;73.266;2022-08-11T09:37:08;63.63;;;38.28;;
59167;SDS011;44948;55.046;73.266;2022-08-11T09:39:20;60.78;;;36.75;;
59167;SDS011;44948;55.046;73.266;2022-08-11T09:41:33;66.90;;;37.50;;
59167;SDS011;44948;55.046;73.266;2022-08-11T09:43:18;69.72;;;37.85;;
59167;SDS011;44948;55.046;73.266;2022-08-11T09:45:52;60.10;;;35.80;;
59167;SDS011;44948;55.046;73.266;2022-08-11T09:47:40;54.00;;;34.47;;
59167;SDS011;44948;55.046;73.266;2022-08-11T09:49:42;54.60;;;35.15;;
59167;SDS011;44948;55.046;73.266;2022-08-11T09:51:30;59.58;;;39.67;;
59167;SDS011;44948;55.046;73.266;2022-08-11T09:53:29;56.15;;;36.58;;
59167;SDS011;44948;55.046;73.266;2022-08-11T09:55:19;53.83;;;32.58;;
59167;SDS011;44948;55.046;73.266;2022-08-11T09:57:18;56.45;;;35.13;;
59167;SDS011;44948;55.046;73.266;2022-08-11T09:59:32;60.42;;;34.75;;
59167;SDS011;44948;55.046;73.266;2022-08-11T10:01:25;59.28;;;35.83;;
59167;SDS011;44948;55.046;73.266;2022-08-11T10:03:21;54.63;;;34.63;;
59167;SDS011;44948;55.046;73.266;2022-08-11T10:05:33;63.03;;;34.35;;
59167;SDS011;44948;55.046;73.266;2022-08-11T10:07:41;55.42;;;33.95;;
59167;SDS011;44948;55.046;73.266;2022-08-11T10:11:42;49.10;;;33.58;;
59167;SDS011;44948;55.046;73.266;2022-08-11T10:13:34;52.25;;;33.17;;
59167;SDS011;44948;55.046;73.266;2022-08-11T10:15:49;47.65;;;31.08;;
59167;SDS011;44948;55.046;73.266;2022-08-11T10:17:42;52.60;;;33.58;;
59167;SDS011;44948;55.046;73.266;2022-08-11T10:19:48;56.28;;;33.83;;
59167;SDS011;44948;55.046;73.266;2022-08-11T10:24:40;54.28;;;33.72;;
59167;SDS011;44948;55.046;73.266;2022-08-11T10:26:52;54.28;;;35.70;;
59167;SDS011;44948;55.046;73.266;2022-08-11T10:29:39;54.08;;;34.17;;
59167;SDS011;44948;55.046;73.266;2022-08-11T10:32:16;62.30;;;36.45;;
59167;SDS011;44948;55.046;73.266;2022-08-11T10:34:25;51.75;;;34.05;;
59167;SDS011;44948;55.046;73.266;2022-08-11T10:36:42;58.33;;;32.92;;
59167;SDS011;44948;55.046;73.266;2022-08-11T10:38:40;54.30;;;34.38;;
59167;SDS011;44948;55.046;73.266;2022-08-11T10:40:44;61.97;;;34.72;;
59167;SDS011;44948;55.046;73.266;2022-08-11T10:42:59;52.35;;;32.78;;
59167;SDS011;44948;55.046;73.266;2022-08-11T10:44:54;54.15;;;33.78;;
59167;SDS011;44948;55.046;73.266;2022-08-11T10:46:50;50.17;;;33.70;;
59167;SDS011;44948;55.046;73.266;2022-08-11T10:48:57;52.20;;;34.38;;
59167;SDS011;44948;55.046;73.266;2022-08-11T10:50:44;50.42;;;33.15;;
59167;SDS011;44948;55.046;73.266;2022-08-11T10:52:49;64.82;;;35.08;;
59167;SDS011;44948;55.046;73.266;2022-08-11T10:55:06;64.18;;;36.47;;
59167;SDS011;44948;55.046;73.266;2022-08-11T10:57:15;70.50;;;36.33;;
59167;SDS011;44948;55.046;73.266;2022-08-11T10:59:25;62.90;;;35.75;;
59167;SDS011;44948;55.046;73.266;2022-08-11T11:01:25;50.45;;;33.75;;
59167;SDS011;44948;55.046;73.266;2022-08-11T11:03:24;57.72;;;35.10;;
59167;SDS011;44948;55.046;73.266;2022-08-11T11:05:28;55.78;;;34.72;;
59167;SDS011;44948;55.046;73.266;2022-08-11T11:07:30;56.25;;;35.42;;
59167;SDS011;44948;55.046;73.266;2022-08-11T11:09:37;58.95;;;34.92;;
59167;SDS011;44948;55.046;73.266;2022-08-11T11:11:32;55.17;;;34.63;;
59167;SDS011;44948;55.046;73.266;2022-08-11T11:13:53;57.13;;;33.67;;
59167;SDS011;44948;55.046;73.266;2022-08-11T11:16:05;63.60;;;36.92;;
59167;SDS011;44948;55.046;73.266;2022-08-11T11:18:24;56.67;;;34.75;;
59167;SDS011;44948;55.046;73.266;2022-08-11T11:20:18;53.28;;;33.45;;
59167;SDS011;44948;55.046;73.266;2022-08-11T11:22:07;57.13;;;35.03;;
59167;SDS011;44948;55.046;73.266;2022-08-11T11:24:39;54.65;;;34.20;;
59167;SDS011;44948;55.046;73.266;2022-08-11T11:29:53;56.13;;;32.85;;
59167;SDS011;44948;55.046;73.266;2022-08-11T11:38:36;54.00;;;32.38;;
59167;SDS011;44948;55.046;73.266;2022-08-11T11:40:30;50.30;;;31.88;;
59167;SDS011;44948;55.046;73.266;2022-08-11T11:42:14;52.65;;;33.55;;
59167;SDS011;44948;55.046;73.266;2022-08-11T11:44:07;54.15;;;33.88;;
59167;SDS011;44948;55.046;73.266;2022-08-11T11:45:59;51.88;;;33.17;;
59167;SDS011;44948;55.046;73.266;2022-08-11T11:47:51;55.58;;;33.67;;
59167;SDS011;44948;55.046;73.266;2022-08-11T11:49:44;50.58;;;33.03;;
59167;SDS011;44948;55.046;73.266;2022-08-11T11:51:43;56.10;;;33.25;;
59167;SDS011;44948;55.046;73.266;2022-08-11T11:53:35;51.47;;;32.70;;
59167;SDS011;44948;55.046;73.266;2022-08-11T11:55:20;59.85;;;34.38;;
59167;SDS011;44948;55.046;73.266;2022-08-11T11:57:12;51.78;;;32.53;;
59167;SDS011;44948;55.046;73.266;2022-08-11T11:59:22;54.63;;;32.67;;
59167;SDS011;44948;55.046;73.266;2022-08-11T12:01:32;60.03;;;34.35;;
59167;SDS011;44948;55.046;73.266;2022-08-11T12:03:29;59.40;;;34.53;;
59167;SDS011;44948;55.046;73.266;2022-08-11T12:05:25;57.13;;;34.15;;
59167;SDS011;44948;55.046;73.266;2022-08-11T12:07:22;52.75;;;33.45;;
59167;SDS011;44948;55.046;73.266;2022-08-11T12:09:25;56.42;;;33.72;;
59167;SDS011;44948;55.046;73.266;2022-08-11T12:11:17;52.13;;;31.73;;
59167;SDS011;44948;55.046;73.266;2022-08-11T12:13:32;51.80;;;32.78;;
59167;SDS011;44948;55.046;73.266;2022-08-11T12:15:23;56.35;;;32.75;;
59167;SDS011;44948;55.046;73.266;2022-08-11T12:17:12;59.45;;;34.47;;
59167;SDS011;44948;55.046;73.266;2022-08-11T12:19:05;50.30;;;32.63;;
59167;SDS011;44948;55.046;73.266;2022-08-11T12:21:39;50.72;;;32.15;;
59167;SDS011;44948;55.046;73.266;2022-08-11T12:23:44;51.35;;;31.40;;
59167;SDS011;44948;55.046;73.266;2022-08-11T12:25:50;50.22;;;31.42;;
59167;SDS011;44948;55.046;73.266;2022-08-11T12:27:57;52.25;;;32.80;;
59167;SDS011;44948;55.046;73.266;2022-08-11T12:29:40;54.95;;;32.95;;
59167;SDS011;44948;55.046;73.266;2022-08-11T12:31:28;50.67;;;31.70;;
59167;SDS011;44948;55.046;73.266;2022-08-11T12:33:19;53.95;;;31.23;;
59167;SDS011;44948;55.046;73.266;2022-08-11T12:35:03;59.10;;;32.17;;
59167;SDS011;44948;55.046;73.266;2022-08-11T12:36:51;54.30;;;32.28;;
59167;SDS011;44948;55.046;73.266;2022-08-11T12:38:48;50.35;;;31.73;;
59167;SDS011;44948;55.046;73.266;2022-08-11T12:40:34;55.10;;;33.25;;
59167;SDS011;44948;55.046;73.266;2022-08-11T12:42:40;55.22;;;32.45;;
59167;SDS011;44948;55.046;73.266;2022-08-11T12:44:46;54.35;;;32.25;;
59167;SDS011;44948;55.046;73.266;2022-08-11T12:46:47;53.55;;;32.45;;
59167;SDS011;44948;55.046;73.266;2022-08-11T12:48:55;52.72;;;33.78;;
59167;SDS011;44948;55.046;73.266;2022-08-11T12:51:01;54.85;;;32.15;;
59167;SDS011;44948;55.046;73.266;2022-08-11T12:53:11;55.70;;;33.08;;
59167;SDS011;44948;55.046;73.266;2022-08-11T12:55:10;54.53;;;32.80;;
59167;SDS011;44948;55.046;73.266;2022-08-11T12:57:28;55.03;;;33.85;;
59167;SDS011;44948;55.046;73.266;2022-08-11T12:59:37;55.42;;;32.15;;
59167;SDS011;44948;55.046;73.266;2022-08-11T13:01:44;57.08;;;32.60;;
59167;SDS011;44948;55.046;73.266;2022-08-11T13:03:50;54.72;;;33.47;;
59167;SDS011;44948;55.046;73.266;2022-08-11T13:05:53;61.63;;;33.08;;
59167;SDS011;44948;55.046;73.266;2022-08-11T13:07:43;57.67;;;32.63;;
59167;SDS011;44948;55.046;73.266;2022-08-11T13:09:29;58.63;;;33.72;;
59167;SDS011;44948;55.046;73.266;2022-08-11T13:11:15;64.18;;;35.35;;
59167;SDS011;44948;55.046;73.266;2022-08-11T13:13:17;56.58;;;33.10;;
59167;SDS011;44948;55.046;73.266;2022-08-11T13:15:03;60.85;;;35.17;;
59167;SDS011;44948;55.046;73.266;2022-08-11T13:16:52;66.65;;;35.47;;
59167;SDS011;44948;55.046;73.266;2022-08-11T13:20:44;58.65;;;32.85;;
59167;SDS011;44948;55.046;73.266;2022-08-11T13:22:33;60.88;;;34.78;;
59167;SDS011;44948;55.046;73.266;2022-08-11T13:24:20;63.38;;;35.55;;
59167;SDS011;44948;55.046;73.266;2022-08-11T13:26:06;66.55;;;35.20;;
59167;SDS011;44948;55.046;73.266;2022-08-11T13:27:51;61.25;;;35.90;;
59167;SDS011;44948;55.046;73.266;2022-08-11T13:29:36;58.17;;;33.20;;
59167;SDS011;44948;55.046;73.266;2022-08-11T13:31:28;58.35;;;32.72;;
59167;SDS011;44948;55.046;73.266;2022-08-11T13:33:17;60.17;;;35.53;;
59167;SDS011;44948;55.046;73.266;2022-08-11T13:35:04;55.60;;;34.22;;
59167;SDS011;44948;55.046;73.266;2022-08-11T13:36:48;67.13;;;36.20;;
59167;SDS011;44948;55.046;73.266;2022-08-11T13:38:36;58.55;;;32.63;;
59167;SDS011;44948;55.046;73.266;2022-08-11T13:40:22;56.55;;;34.05;;
59167;SDS011;44948;55.046;73.266;2022-08-11T13:42:06;59.10;;;36.33;;
59167;SDS011;44948;55.046;73.266;2022-08-11T13:43:50;61.30;;;36.58;;
59167;SDS011;44948;55.046;73.266;2022-08-11T13:45:37;54.58;;;33.78;;
59167;SDS011;44948;55.046;73.266;2022-08-11T13:47:20;55.33;;;33.42;;
59167;SDS011;44948;55.046;73.266;2022-08-11T13:49:09;56.13;;;32.83;;
59167;SDS011;44948;55.046;73.266;2022-08-11T13:50:58;56.25;;;31.52;;
59167;SDS011;44948;55.046;73.266;2022-08-11T13:54:55;64.53;;;34.90;;
59167;SDS011;44948;55.046;73.266;2022-08-11T13:56:50;57.78;;;32.83;;
59167;SDS011;44948;55.046;73.266;2022-08-11T13:58:51;53.47;;;32.63;;
59167;SDS011;44948;55.046;73.266;2022-08-11T14:00:47;53.83;;;31.73;;
59167;SDS011;44948;55.046;73.266;2022-08-11T14:02:37;56.22;;;32.85;;
59167;SDS011;44948;55.046;73.266;2022-08-11T14:04:31;55.00;;;32.72;;
59167;SDS011;44948;55.046;73.266;2022-08-11T14:06:32;53.92;;;30.98;;
59167;SDS011;44948;55.046;73.266;2022-08-11T14:08:30;56.30;;;31.38;;
59167;SDS011;44948;55.046;73.266;2022-08-11T14:10:22;52.30;;;30.25;;
59167;SDS011;44948;55.046;73.266;2022-08-11T14:12:20;55.20;;;30.60;;
59167;SDS011;44948;55.046;73.266;2022-08-11T14:14:26;54.95;;;31.05;;
59167;SDS011;44948;55.046;73.266;2022-08-11T14:16:28;55.05;;;30.80;;
59167;SDS011;44948;55.046;73.266;2022-08-11T14:18:19;55.50;;;31.80;;
59167;SDS011;44948;55.046;73.266;2022-08-11T14:20:15;61.03;;;32.05;;
59167;SDS011;44948;55.046;73.266;2022-08-11T14:22:08;56.40;;;32.30;;
59167;SDS011;44948;55.046;73.266;2022-08-11T14:24:01;65.65;;;35.40;;
59167;SDS011;44948;55.046;73.266;2022-08-11T14:25:47;57.80;;;32.53;;
59167;SDS011;44948;55.046;73.266;2022-08-11T14:27:54;59.22;;;32.85;;
59167;SDS011;44948;55.046;73.266;2022-08-11T14:29:41;59.17;;;31.70;;
59167;SDS011;44948;55.046;73.266;2022-08-11T14:31:30;61.38;;;32.50;;
59167;SDS011;44948;55.046;73.266;2022-08-11T14:33:20;57.88;;;30.80;;
59167;SDS011;44948;55.046;73.266;2022-08-11T14:35:11;54.92;;;31.08;;
59167;SDS011;44948;55.046;73.266;2022-08-11T14:37:02;56.33;;;29.45;;
59167;SDS011;44948;55.046;73.266;2022-08-11T14:38:58;53.10;;;30.17;;
59167;SDS011;44948;55.046;73.266;2022-08-11T14:40:54;55.03;;;29.38;;
59167;SDS011;44948;55.046;73.266;2022-08-11T14:42:58;52.88;;;29.60;;
59167;SDS011;44948;55.046;73.266;2022-08-11T14:45:06;54.95;;;30.08;;
59167;SDS011;44948;55.046;73.266;2022-08-11T14:47:10;49.38;;;29.50;;
59167;SDS011;44948;55.046;73.266;2022-08-11T14:48:59;62.05;;;31.02;;
59167;SDS011;44948;55.046;73.266;2022-08-11T14:50:51;60.42;;;33.15;;
59167;SDS011;44948;55.046;73.266;2022-08-11T14:52:49;55.58;;;31.42;;
59167;SDS011;44948;55.046;73.266;2022-08-11T14:54:44;62.00;;;32.15;;
59167;SDS011;44948;55.046;73.266;2022-08-11T14:57:02;63.63;;;33.40;;
59167;SDS011;44948;55.046;73.266;2022-08-11T14:58:56;58.60;;;32.28;;
59167;SDS011;44948;55.046;73.266;2022-08-11T15:00:49;60.33;;;32.30;;
59167;SDS011;44948;55.046;73.266;2022-08-11T15:02:46;62.10;;;32.20;;
59167;SDS011;44948;55.046;73.266;2022-08-11T15:05:13;56.85;;;30.77;;
59167;SDS011;44948;55.046;73.266;2022-08-11T15:07:01;63.22;;;33.10;;
59167;SDS011;44948;55.046;73.266;2022-08-11T15:08:50;60.35;;;33.17;;
59167;SDS011;44948;55.046;73.266;2022-08-11T15:10:47;62.97;;;33.92;;
59167;SDS011;44948;55.046;73.266;2022-08-11T15:12:38;61.35;;;34.47;;
59167;SDS011;44948;55.046;73.266;2022-08-11T15:14:29;63.15;;;34.15;;
59167;SDS011;44948;55.046;73.266;2022-08-11T15:16:36;58.80;;;32.05;;
59167;SDS011;44948;55.046;73.266;2022-08-11T15:18:44;57.70;;;30.88;;
59167;SDS011;44948;55.046;73.266;2022-08-11T15:20:30;57.75;;;31.70;;
59167;SDS011;44948;55.046;73.266;2022-08-11T15:22:34;59.13;;;31.40;;
59167;SDS011;44948;55.046;73.266;2022-08-11T15:24:40;60.30;;;33.28;;
59167;SDS011;44948;55.046;73.266;2022-08-11T15:26:31;58.00;;;33.20;;
59167;SDS011;44948;55.046;73.266;2022-08-11T15:28:54;63.15;;;31.67;;